Time;durP1;ratioP1;P1;durP2;ratioP2;P2;SDS_P1;SDS_P2;PMS_P1;PMS_P2;Temp;Humidity;BMP_temperature;BMP_pressure;BME280_temperature;BME280_humidity;BME280_pressure;Samples;Min_cycle;Max_cycle;Signal;HPM_P1;HPM_P2
2023/10/03 00:01:47;;;;;;;8.13;7.32;;;;;;;23.16;40.33;96011.06;6006431;28;108994;-58
2023/10/03 00:04:50;;;;;;;8.40;7.60;;;;;;;23.17;40.31;96009.97;6015714;28;109202;-57
2023/10/03 00:07:53;;;;;;;8.57;7.78;;;;;;;23.18;40.57;96006.22;6016721;28;108899;-58
2023/10/03 00:10:56;;;;;;;9.85;7.45;;;;;;;23.13;40.11;96009.75;6016503;29;109166;-57
2023/10/03 00:14:00;;;;;;;8.90;8.00;;;;;;;23.15;40.43;96012.13;6005801;28;109320;-57
2023/10/03 00:17:04;;;;;;;8.40;7.60;;;;;;;23.12;40.23;96010.84;6017262;28;108947;-57
2023/10/03 00:20:11;;;;;;;8.80;7.90;;;;;;;23.13;40.24;96015.09;6014567;28;109284;-58
2023/10/03 00:23:14;;;;;;;8.70;7.90;;;;;;;23.11;40.52;96014.59;6006646;28;109170;-57
2023/10/03 00:26:18;;;;;;;9.20;7.78;;;;;;;23.10;40.49;96021.00;6008232;28;109456;-58
2023/10/03 00:29:23;;;;;;;8.85;7.95;;;;;;;23.11;40.14;96009.25;6016650;28;111823;-58
2023/10/03 00:32:29;;;;;;;9.40;8.40;;;;;;;23.12;40.39;96007.38;6015658;28;109613;-59
2023/10/03 00:35:34;;;;;;;9.00;8.10;;;;;;;23.10;39.97;96006.88;6008319;28;108978;-59
2023/10/03 00:38:38;;;;;;;8.63;7.73;;;;;;;23.10;40.04;96005.00;6014665;28;109513;-60
2023/10/03 00:41:41;;;;;;;8.95;8.05;;;;;;;23.07;40.52;96004.78;6017154;28;109085;-59
2023/10/03 00:44:45;;;;;;;8.85;8.05;;;;;;;23.07;40.09;96010.91;6014288;28;109084;-60
2023/10/03 00:47:50;;;;;;;8.20;7.40;;;;;;;23.05;40.04;95994.41;6005174;28;109760;-59
2023/10/03 00:50:55;;;;;;;8.10;7.30;;;;;;;23.05;40.10;96002.41;6015938;28;109009;-59
2023/10/03 00:54:02;;;;;;;8.85;8.07;;;;;;;23.06;40.56;96006.66;6015344;28;109898;-59
2023/10/03 00:57:05;;;;;;;9.20;8.40;;;;;;;23.09;40.24;96003.41;6019771;28;108861;-61
2023/10/03 01:00:15;;;;;;;8.98;8.07;;;;;;;23.06;40.38;96006.66;6009117;28;109099;-60
2023/10/03 01:03:37;;;;;;;9.20;8.02;;;;;;;23.05;40.25;96012.28;6015019;28;109325;-61
2023/10/03 01:06:41;;;;;;;8.73;7.93;;;;;;;23.04;40.25;96016.84;6015590;29;108932;-60
2023/10/03 01:09:44;;;;;;;8.68;7.88;;;;;;;23.03;40.21;96011.78;6004013;28;109228;-60
2023/10/03 01:12:49;;;;;;;9.23;7.70;;;;;;;23.01;40.03;96020.06;6015378;28;109096;-61
2023/10/03 01:15:53;;;;;;;9.52;7.20;;;;;;;23.01;40.48;96023.53;6022352;28;109111;-61
2023/10/03 01:19:08;;;;;;;8.50;7.70;;;;;;;22.89;40.07;96001.81;6030132;28;108908;-60
2023/10/03 01:22:13;;;;;;;8.85;7.80;;;;;;;22.93;40.04;96015.38;6004050;29;109493;-60
2023/10/03 01:25:17;;;;;;;8.32;7.53;;;;;;;22.94;40.01;96012.41;6019795;28;108946;-60
2023/10/03 01:28:20;;;;;;;8.07;7.37;;;;;;;22.96;40.16;96017.47;6015290;28;109574;-61
2023/10/03 01:31:23;;;;;;;7.70;7.00;;;;;;;22.94;40.11;96008.94;6014675;28;109197;-60
2023/10/03 01:34:27;;;;;;;8.52;7.72;;;;;;;22.92;40.06;96005.78;6001078;28;109803;-60
2023/10/03 01:37:30;;;;;;;8.63;7.82;;;;;;;22.95;40.30;95999.88;6015495;28;108922;-60
2023/10/03 01:40:36;;;;;;;8.57;7.63;;;;;;;22.94;40.11;95998.28;6015765;29;109402;-60
2023/10/03 01:43:43;;;;;;;7.80;7.00;;;;;;;22.96;40.37;96004.13;6006361;28;109435;-60
2023/10/03 01:46:47;;;;;;;8.32;7.53;;;;;;;22.93;40.25;96008.16;6015370;29;109292;-61
2023/10/03 01:49:51;;;;;;;7.90;7.10;;;;;;;22.90;39.76;96007.94;6014749;28;109001;-60
2023/10/03 01:52:54;;;;;;;7.68;6.90;;;;;;;22.91;40.03;96001.53;6018980;29;108854;-60
2023/10/03 01:55:59;;;;;;;7.80;7.10;;;;;;;22.92;39.72;96005.78;6006276;28;108941;-60
2023/10/03 01:59:02;;;;;;;7.40;6.70;;;;;;;22.90;39.86;96002.59;6019354;28;108902;-59
2023/10/03 02:02:06;;;;;;;7.80;7.10;;;;;;;22.90;39.79;95999.94;6020131;28;109103;-59
2023/10/03 02:05:12;;;;;;;7.70;7.00;;;;;;;22.86;39.66;96006.94;6017743;28;108983;-60
2023/10/03 02:08:16;;;;;;;7.90;6.90;;;;;;;22.83;39.79;96002.16;6008925;28;109016;-60
2023/10/03 02:11:26;;;;;;;7.55;6.82;;;;;;;22.89;40.05;95995.69;6019832;28;109039;-59
2023/10/03 02:14:30;;;;;;;8.93;7.90;;;;;;;22.83;39.63;95986.94;6018363;28;110535;-60
2023/10/03 02:17:34;;;;;;;8.03;7.23;;;;;;;22.87;39.65;95987.16;6014272;28;108973;-60
2023/10/03 02:20:47;;;;;;;7.87;7.07;;;;;;;22.82;40.33;95980.00;6013790;28;109308;-60
2023/10/03 02:23:50;;;;;;;8.20;7.20;;;;;;;22.82;39.92;95995.22;6018026;28;108952;-60
2023/10/03 02:26:56;;;;;;;8.00;7.20;;;;;;;22.86;39.82;95980.25;6019840;28;109079;-59
2023/10/03 02:30:05;;;;;;;7.80;7.00;;;;;;;22.85;39.91;95973.28;6009314;28;110066;-59
2023/10/03 02:33:12;;;;;;;8.80;7.90;;;;;;;22.83;39.74;95976.25;5995706;29;108986;-59
2023/10/03 02:36:16;;;;;;;8.73;7.70;;;;;;;22.81;40.10;95972.28;6016844;29;109075;-59
2023/10/03 02:39:25;;;;;;;8.07;7.28;;;;;;;22.82;40.11;95968.53;6019238;28;108946;-59
2023/10/03 02:42:29;;;;;;;8.68;7.30;;;;;;;22.80;40.06;95965.38;6007608;28;110172;-60
2023/10/03 02:45:33;;;;;;;8.50;7.70;;;;;;;22.80;40.19;95965.38;6017774;28;110538;-59
2023/10/03 02:48:36;;;;;;;7.10;6.40;;;;;;;22.79;40.15;95969.91;6018405;28;108856;-59
2023/10/03 02:51:41;;;;;;;7.70;6.90;;;;;;;22.82;39.84;95968.53;6013401;28;110844;-60
2023/10/03 02:54:44;;;;;;;8.07;7.27;;;;;;;22.78;40.11;95967.53;6012629;29;109051;-60
2023/10/03 02:57:48;;;;;;;8.05;7.18;;;;;;;22.77;40.04;95969.41;6019161;28;109037;-60
2023/10/03 03:00:54;;;;;;;9.27;7.10;;;;;;;22.77;39.69;95981.97;6016644;29;109014;-60
2023/10/03 03:03:59;;;;;;;7.70;6.90;;;;;;;22.74;40.30;95983.31;6007518;28;109339;-60
2023/10/03 03:07:04;;;;;;;7.70;6.90;;;;;;;22.72;40.12;95966.81;6016274;28;109283;-59
2023/10/03 03:10:12;;;;;;;9.18;7.00;;;;;;;22.80;40.25;95976.03;6017405;28;109231;-60
2023/10/03 03:13:16;;;;;;;8.20;6.93;;;;;;;22.89;40.09;95979.66;6018678;28;108915;-60
2023/10/03 03:16:20;;;;;;;8.88;7.40;;;;;;;22.92;40.26;95971.88;6006572;28;109283;-60
2023/10/03 03:19:27;;;;;;;8.20;6.70;;;;;;;22.97;39.91;95973.66;6017375;29;109171;-60
2023/10/03 03:22:30;;;;;;;8.27;7.47;;;;;;;23.02;39.61;95984.31;6017631;28;109011;-59
2023/10/03 03:25:37;;;;;;;9.13;7.50;;;;;;;23.03;39.89;95980.53;6006881;28;108951;-59
2023/10/03 03:28:43;;;;;;;9.80;8.90;;;;;;;23.04;39.76;95986.69;6013219;28;109098;-60
2023/10/03 03:31:46;;;;;;;8.70;7.80;;;;;;;23.02;40.03;95984.31;6018237;29;109270;-60
2023/10/03 03:34:50;;;;;;;11.40;9.38;;;;;;;23.03;40.40;95985.88;6015395;28;108962;-59
2023/10/03 03:37:57;;;;;;;12.27;11.15;;;;;;;23.03;40.51;95993.09;6006259;28;109538;-57
2023/10/03 03:41:01;;;;;;;10.45;9.55;;;;;;;23.05;39.77;95994.41;6017629;28;109009;-60
2023/10/03 03:44:11;;;;;;;13.48;12.07;;;;;;;23.06;40.55;96000.53;6017821;28;108926;-59
2023/10/03 03:47:14;;;;;;;18.27;11.80;;;;;;;23.03;40.77;95995.78;6016381;28;109017;-60
2023/10/03 03:50:17;;;;;;;16.20;11.50;;;;;;;23.06;40.22;96000.53;6007637;28;109130;-59
2023/10/03 03:53:21;;;;;;;15.05;13.45;;;;;;;23.05;40.58;96002.41;6015996;28;109390;-60
2023/10/03 03:56:24;;;;;;;15.18;13.57;;;;;;;23.04;40.48;96006.16;6016288;29;109026;-59
2023/10/03 03:59:29;;;;;;;13.60;12.20;;;;;;;23.04;40.38;96000.03;6011676;29;110502;-59
2023/10/03 04:02:32;;;;;;;15.55;14.05;;;;;;;23.04;40.29;96008.03;6011375;28;108975;-64
2023/10/03 04:05:36;;;;;;;15.40;13.10;;;;;;;23.02;40.58;96013.66;6015924;28;108953;-64
2023/10/03 04:08:40;;;;;;;16.13;14.43;;;;;;;23.04;40.46;96008.81;6014991;28;109926;-63
2023/10/03 04:12:02;;;;;;;14.00;12.50;;;;;;;23.12;39.81;96015.38;6017599;28;109736;-63
2023/10/03 04:15:12;;;;;;;13.73;11.80;;;;;;;23.14;40.16;96013.22;6015871;28;108931;-63
2023/10/03 04:18:15;;;;;;;13.50;11.30;;;;;;;23.11;40.36;96017.25;6013933;28;111226;-61
2023/10/03 04:21:19;;;;;;;12.38;10.80;;;;;;;22.95;39.65;96013.22;6015512;28;108926;-61
2023/10/03 04:24:23;;;;;;;11.27;10.03;;;;;;;22.59;39.41;96016.31;6006241;28;108892;-61
2023/10/03 04:27:26;;;;;;;14.98;13.48;;;;;;;22.56;39.79;96019.53;6017473;29;109033;-61
2023/10/03 04:30:30;;;;;;;18.02;16.33;;;;;;;22.48;39.60;96009.47;6017578;29;109018;-60
2023/10/03 04:33:34;;;;;;;15.70;14.10;;;;;;;22.39;39.66;96011.19;6012697;28;109483;-59
2023/10/03 04:36:37;;;;;;;12.73;11.50;;;;;;;22.23;39.43;96001.75;6010505;29;108982;-61
2023/10/03 04:39:41;;;;;;;16.17;12.50;;;;;;;22.24;39.36;96011.34;6016045;28;109023;-61
2023/10/03 04:42:45;;;;;;;13.13;11.80;;;;;;;22.21;39.59;96012.72;6017150;29;108842;-60
2023/10/03 04:45:51;;;;;;;12.25;11.05;;;;;;;22.21;39.20;96006.59;6006511;28;109293;-61
2023/10/03 04:48:54;;;;;;;11.30;10.10;;;;;;;22.16;39.18;96004.75;6016625;28;108994;-61
2023/10/03 04:51:58;;;;;;;11.77;10.10;;;;;;;22.12;39.73;96009.06;6016811;28;108978;-60
2023/10/03 04:55:01;;;;;;;13.52;12.13;;;;;;;22.16;39.07;96011.94;6016764;28;109028;-61
2023/10/03 04:58:04;;;;;;;13.68;12.20;;;;;;;22.15;39.21;96010.38;6005981;29;109133;-61
2023/10/03 05:01:09;;;;;;;12.77;11.57;;;;;;;22.14;39.41;96006.91;6016676;29;109063;-60
2023/10/03 05:04:14;;;;;;;13.23;11.82;;;;;;;22.14;39.43;96003.44;6016858;29;108830;-61
2023/10/03 05:07:18;;;;;;;13.30;12.00;;;;;;;22.14;39.77;96009.56;6016715;28;109057;-60
2023/10/03 05:10:21;;;;;;;12.70;11.40;;;;;;;22.19;39.12;96016.75;6004861;28;110535;-61
2023/10/03 05:13:24;;;;;;;13.10;11.80;;;;;;;22.17;39.57;96016.22;6016405;28;108893;-60
2023/10/03 05:16:29;;;;;;;12.27;10.97;;;;;;;22.16;39.06;96014.63;6016207;29;108935;-59
2023/10/03 05:19:33;;;;;;;12.43;11.23;;;;;;;22.12;39.33;96019.72;6009030;28;109354;-60
2023/10/03 05:22:36;;;;;;;11.98;10.88;;;;;;;22.17;39.56;96016.22;6013836;28;109710;-59
2023/10/03 05:25:42;;;;;;;12.20;10.05;;;;;;;22.20;39.76;96023.66;6015169;28;109030;-59
2023/10/03 05:28:46;;;;;;;13.60;10.90;;;;;;;22.19;39.69;96027.41;6016000;28;109044;-59
2023/10/03 05:31:52;;;;;;;14.83;11.83;;;;;;;22.24;39.59;96030.00;5991876;28;109108;-59
2023/10/03 05:34:58;;;;;;;15.02;13.35;;;;;;;22.24;39.80;96024.69;5994704;29;108906;-59
2023/10/03 05:38:01;;;;;;;17.40;13.00;;;;;;;22.26;39.36;96031.31;6016493;29;109025;-59
2023/10/03 05:41:04;;;;;;;17.83;14.20;;;;;;;22.29;39.33;96033.41;6014891;28;108922;-60
2023/10/03 05:44:11;;;;;;;16.52;13.07;;;;;;;22.26;39.17;96035.84;6004926;28;109159;-60
2023/10/03 05:47:16;;;;;;;16.48;12.70;;;;;;;22.27;39.76;96037.44;6015923;29;108827;-59
2023/10/03 05:50:21;;;;;;;18.97;12.23;;;;;;;22.30;39.58;96037.66;6015831;29;108910;-59
2023/10/03 05:53:25;;;;;;;17.30;12.77;;;;;;;22.30;39.46;96034.22;6011836;28;108871;-59
2023/10/03 05:56:28;;;;;;;14.15;11.52;;;;;;;22.32;39.45;96032.84;6010268;28;109038;-60
2023/10/03 05:59:32;;;;;;;16.13;12.23;;;;;;;22.33;39.59;96033.63;6015929;28;109025;-60
2023/10/03 06:02:38;;;;;;;16.58;11.90;;;;;;;22.38;39.26;96036.28;6015706;29;109147;-59
2023/10/03 06:05:42;;;;;;;12.57;10.77;;;;;;;22.39;39.16;96037.88;6005639;29;109553;-59
2023/10/03 06:08:49;;;;;;;14.07;10.90;;;;;;;22.50;39.25;96042.00;6016110;29;109303;-59
2023/10/03 06:11:53;;;;;;;13.50;10.32;;;;;;;22.64;39.44;96045.59;6014934;29;108774;-60
2023/10/03 06:15:00;;;;;;;12.25;10.25;;;;;;;22.75;39.13;96042.81;6015747;29;108916;-60
2023/10/03 06:18:05;;;;;;;12.27;10.40;;;;;;;22.77;39.15;96041.47;6005364;29;110321;-59
2023/10/03 06:21:09;;;;;;;12.43;9.60;;;;;;;22.83;38.64;96050.19;6015200;28;108941;-60
2023/10/03 06:24:14;;;;;;;13.07;10.18;;;;;;;22.84;39.02;96038.44;6015744;28;108922;-60
2023/10/03 06:27:18;;;;;;;12.15;9.90;;;;;;;22.98;39.03;96042.00;6010254;28;108986;-59
2023/10/03 06:30:21;;;;;;;11.47;10.27;;;;;;;23.02;38.76;96045.69;6009991;28;110952;-60
2023/10/03 06:33:27;;;;;;;11.18;9.98;;;;;;;23.12;38.61;96042.88;6014898;28;109004;-60
2023/10/03 06:36:31;;;;;;;11.50;10.30;;;;;;;23.18;38.71;96046.25;6018050;28;109033;-60
2023/10/03 06:39:35;;;;;;;10.55;9.23;;;;;;;23.24;38.32;96045.13;6008053;28;108958;-59
2023/10/03 06:42:38;;;;;;;10.13;9.07;;;;;;;23.27;38.16;96037.34;6018019;28;109014;-59
2023/10/03 06:45:42;;;;;;;10.07;8.70;;;;;;;23.42;38.45;96048.91;6019124;28;108866;-59
2023/10/03 06:48:47;;;;;;;10.68;9.25;;;;;;;23.47;38.21;96048.84;6019016;28;108872;-60
2023/10/03 06:51:56;;;;;;;10.77;9.27;;;;;;;23.51;37.96;96049.84;6008203;28;109111;-60
2023/10/03 06:54:59;;;;;;;10.40;9.30;;;;;;;23.59;38.40;96057.22;6018944;28;109086;-60
2023/10/03 06:58:03;;;;;;;11.20;10.00;;;;;;;23.67;37.69;96055.75;6018870;28;108983;-61
2023/10/03 07:01:08;;;;;;;12.80;10.90;;;;;;;23.73;37.93;96052.72;6017712;28;108943;-58
2023/10/03 07:04:13;;;;;;;13.88;12.48;;;;;;;23.74;37.69;96046.28;6011970;29;108917;-60
2023/10/03 07:07:17;;;;;;;16.50;14.67;;;;;;;23.85;37.89;96057.59;6018773;28;109039;-59
2023/10/03 07:10:21;;;;;;;16.97;15.37;;;;;;;23.90;37.58;96052.19;6018558;28;109400;-59
2023/10/03 07:13:26;;;;;;;18.60;16.70;;;;;;;23.97;37.60;96062.50;6007331;28;108986;-59
2023/10/03 07:16:37;;;;;;;20.42;18.63;;;;;;;24.04;37.72;96062.97;6018071;28;109208;-59
2023/10/03 07:19:41;;;;;;;21.05;19.15;;;;;;;24.13;37.80;96071.88;6018442;28;109651;-59
2023/10/03 07:22:47;;;;;;;21.27;19.07;;;;;;;24.21;37.50;96073.91;6018311;29;109281;-59
2023/10/03 07:25:51;;;;;;;22.52;20.33;;;;;;;24.25;37.57;96074.88;6007123;28;108931;-60
2023/10/03 07:28:57;;;;;;;23.98;21.60;;;;;;;24.31;37.88;96079.06;6018065;28;108948;-60
2023/10/03 07:32:00;;;;;;;24.80;22.50;;;;;;;24.35;37.65;96079.25;6017922;28;108970;-60
2023/10/03 07:35:10;;;;;;;24.10;21.90;;;;;;;24.35;37.69;96080.03;6017883;28;109049;-60
2023/10/03 07:38:14;;;;;;;22.70;20.60;;;;;;;24.38;37.95;96074.13;6008913;28;109670;-62
2023/10/03 07:41:21;;;;;;;22.10;20.10;;;;;;;24.43;37.90;96082.06;6018164;29;109001;-62
2023/10/03 07:44:25;;;;;;;22.80;20.67;;;;;;;24.46;38.03;96076.09;6017373;29;108862;-61
2023/10/03 07:47:29;;;;;;;21.98;19.77;;;;;;;24.47;37.81;96072.34;6007636;29;109199;-62
2023/10/03 07:50:37;;;;;;;20.42;18.52;;;;;;;24.48;37.78;96073.94;6017590;29;109008;-60
2023/10/03 07:53:40;;;;;;;21.27;19.27;;;;;;;24.55;38.26;96072.75;5994349;29;108996;-60
2023/10/03 07:56:44;;;;;;;20.63;18.73;;;;;;;24.58;37.80;96072.16;6003105;29;109034;-61
2023/10/03 07:59:50;;;;;;;20.88;18.88;;;;;;;24.56;38.02;96064.44;6006821;28;108898;-61
2023/10/03 08:02:53;;;;;;;20.60;18.60;;;;;;;24.58;38.16;96066.81;6017704;29;108892;-62
2023/10/03 08:05:58;;;;;;;20.10;18.10;;;;;;;24.61;37.80;96068.88;6017535;28;108910;-61
2023/10/03 08:09:02;;;;;;;19.75;17.80;;;;;;;24.57;38.02;96062.56;6017191;28;108930;-60
2023/10/03 08:12:11;;;;;;;19.77;17.87;;;;;;;24.56;37.91;96067.13;6006928;28;108870;-61
2023/10/03 08:15:18;;;;;;;20.17;18.38;;;;;;;24.58;37.86;96064.13;6016589;28;108946;-61
2023/10/03 08:18:21;;;;;;;19.70;18.00;;;;;;;24.58;37.98;96062.25;6017345;29;108866;-61
2023/10/03 08:21:27;;;;;;;20.40;18.50;;;;;;;24.60;37.74;96064.63;6008976;29;109513;-60
2023/10/03 08:24:30;;;;;;;20.00;18.20;;;;;;;24.58;37.66;96064.13;6016741;28;108900;-60
2023/10/03 08:27:33;;;;;;;19.75;17.77;;;;;;;24.57;37.51;96066.03;6017118;28;109150;-61
2023/10/03 08:30:38;;;;;;;18.50;16.77;;;;;;;24.59;37.54;96058.47;6017106;29;108904;-61
2023/10/03 08:33:41;;;;;;;19.25;17.48;;;;;;;24.61;37.19;96055.50;6005998;28;109174;-62
2023/10/03 08:36:46;;;;;;;19.60;17.70;;;;;;;24.65;37.38;96051.94;6017288;29;109156;-62
2023/10/03 08:39:50;;;;;;;19.30;17.50;;;;;;;24.70;37.28;96051.09;6017169;29;108849;-62
2023/10/03 08:42:55;;;;;;;19.13;17.13;;;;;;;24.69;37.00;96052.94;6016832;28;109168;-61
2023/10/03 08:46:00;;;;;;;18.52;16.80;;;;;;;24.74;36.95;96057.44;6004654;29;109076;-60
2023/10/03 08:49:08;;;;;;;18.45;16.75;;;;;;;24.74;37.04;96044.03;6016822;29;108979;-61
2023/10/03 08:52:14;;;;;;;17.60;15.90;;;;;;;24.81;37.12;96039.06;6016451;28;108931;-61
2023/10/03 08:55:19;;;;;;;18.13;16.43;;;;;;;24.81;37.25;96036.41;6011444;28;108937;-60
2023/10/03 08:58:25;;;;;;;17.52;15.90;;;;;;;24.79;37.22;96039.38;6009752;28;109047;-62
2023/10/03 09:01:33;;;;;;;17.50;15.90;;;;;;;24.81;37.01;96028.38;6016788;29;108944;-61
2023/10/03 09:04:38;;;;;;;17.93;16.33;;;;;;;24.83;37.27;96031.53;6016539;29;109306;-61
2023/10/03 09:07:46;;;;;;;16.37;14.80;;;;;;;24.79;37.29;96025.19;5995245;29;109080;-61
2023/10/03 09:10:52;;;;;;;16.50;15.00;;;;;;;24.80;37.21;96026.78;5992938;29;108994;-61
2023/10/03 09:13:59;;;;;;;17.35;15.65;;;;;;;24.82;37.36;96023.81;6015320;29;108973;-61
2023/10/03 09:17:03;;;;;;;16.90;15.40;;;;;;;24.84;37.15;96022.41;6015521;28;109011;-61
2023/10/03 09:20:08;;;;;;;17.20;15.52;;;;;;;24.83;37.09;96022.72;6006538;28;108968;-61
2023/10/03 09:23:17;;;;;;;16.27;14.80;;;;;;;24.87;37.30;96024.50;6016291;29;108880;-62
2023/10/03 09:26:21;;;;;;;16.48;14.88;;;;;;;24.90;36.98;96021.22;6016289;29;108824;-61
2023/10/03 09:29:32;;;;;;;16.13;14.53;;;;;;;24.93;37.10;96020.63;6010860;28;108914;-62
2023/10/03 09:32:39;;;;;;;17.10;15.50;;;;;;;24.91;37.13;96017.47;6014820;28;109178;-61
2023/10/03 09:35:57;;;;;;;16.70;15.00;;;;;;;24.91;37.13;96008.63;6015406;28;109286;-61
2023/10/03 09:39:02;;;;;;;15.00;13.70;;;;;;;24.95;36.98;96006.94;6016248;29;108787;-61
2023/10/03 09:42:07;;;;;;;15.67;14.17;;;;;;;24.96;37.04;96003.16;6005573;29;109007;-61
2023/10/03 09:45:16;;;;;;;15.30;13.70;;;;;;;24.97;37.15;96002.06;6015993;28;108911;-62
2023/10/03 09:48:24;;;;;;;15.20;13.70;;;;;;;24.97;37.21;95991.34;6015079;28;109195;-62
2023/10/03 09:51:46;;;;;;;15.55;14.15;;;;;;;24.97;37.23;95989.47;6016004;29;108908;-61
2023/10/03 09:54:53;;;;;;;14.60;13.30;;;;;;;24.98;37.00;95983.00;6009892;28;108927;-62
2023/10/03 09:57:59;;;;;;;15.40;13.90;;;;;;;24.91;37.36;95979.19;6016091;28;108999;-62
2023/10/03 10:01:03;;;;;;;15.70;14.20;;;;;;;25.00;37.23;95982.72;6015999;29;108875;-61
2023/10/03 10:04:09;;;;;;;15.23;13.73;;;;;;;24.99;37.24;95976.56;6005332;28;108970;-60
2023/10/03 10:07:29;;;;;;;14.60;13.17;;;;;;;24.95;37.34;95975.59;6015741;28;109156;-62
2023/10/03 10:10:34;;;;;;;14.48;13.18;;;;;;;24.97;37.06;95978.75;6017832;29;108821;-61
2023/10/03 10:13:44;;;;;;;14.80;13.50;;;;;;;24.97;37.42;95976.06;6020084;29;108941;-62
2023/10/03 10:17:16;;;;;;;13.77;12.48;;;;;;;24.96;37.42;95971.03;6008588;29;108984;-63
2023/10/03 10:20:27;;;;;;;14.50;13.20;;;;;;;24.90;37.29;95967.69;6018680;28;109046;-62
2023/10/03 10:23:35;;;;;;;14.43;13.02;;;;;;;24.88;37.59;95964.50;6019449;28;109031;-62
2023/10/03 10:26:40;;;;;;;13.60;12.50;;;;;;;24.82;37.57;95949.63;6009391;28;108780;-62
2023/10/03 10:29:58;;;;;;;13.55;12.35;;;;;;;24.85;37.38;95942.88;6019173;28;109059;-62
2023/10/03 10:33:25;;;;;;;13.30;12.00;;;;;;;24.79;37.41;95939.53;6019114;28;108985;-63
2023/10/03 10:36:56;;;;;;;12.93;11.63;;;;;;;24.78;37.39;95937.94;6019570;29;108843;-62
2023/10/03 10:40:21;;;;;;;12.13;11.02;;;;;;;24.78;37.26;95928.03;5985335;29;109351;-61
2023/10/03 10:43:27;;;;;;;12.67;11.43;;;;;;;24.76;37.57;95930.22;6009822;29;109355;-66
2023/10/03 10:46:35;;;;;;;12.80;11.60;;;;;;;24.74;37.66;95927.06;6019217;29;108925;-62
2023/10/03 10:49:57;;;;;;;12.40;11.20;;;;;;;24.71;37.72;95924.19;6008569;28;109130;-61
2023/10/03 10:53:20;;;;;;;12.65;11.45;;;;;;;24.67;37.62;95915.91;6018278;29;108909;-61
2023/10/03 10:56:28;;;;;;;12.38;11.27;;;;;;;24.65;37.59;95912.75;6018908;28;109012;-61
2023/10/03 10:59:35;;;;;;;12.37;11.30;;;;;;;24.63;37.56;95906.91;6018630;28;109161;-62
2023/10/03 11:02:43;;;;;;;11.55;10.55;;;;;;;24.63;37.70;95906.13;6008054;28;110170;-61
2023/10/03 11:05:48;;;;;;;12.30;11.20;;;;;;;24.62;37.78;95904.53;6018784;28;109187;-59
2023/10/03 11:08:52;;;;;;;12.90;11.70;;;;;;;24.58;37.76;95898.22;6018470;28;109046;-59
2023/10/03 11:11:55;;;;;;;12.95;11.85;;;;;;;24.58;37.75;95893.66;6013309;29;109365;-59
2023/10/03 11:15:00;;;;;;;12.90;11.70;;;;;;;24.55;37.69;95890.78;6014625;28;109094;-60
2023/10/03 11:18:04;;;;;;;13.15;11.95;;;;;;;24.48;37.92;95875.91;6018377;28;108956;-60
2023/10/03 11:21:10;;;;;;;12.53;11.33;;;;;;;24.49;37.83;95877.50;6017834;29;108928;-61
2023/10/03 11:24:18;;;;;;;12.75;11.65;;;;;;;24.45;37.80;95876.53;6007056;28;108991;-59
2023/10/03 11:27:26;;;;;;;12.32;11.23;;;;;;;24.46;37.92;95874.63;6018422;28;108777;-59
2023/10/03 11:30:31;;;;;;;12.20;11.10;;;;;;;24.46;37.82;95872.75;6018240;29;108917;-60
2023/10/03 11:33:43;;;;;;;12.70;11.50;;;;;;;24.44;37.92;95868.81;6017838;28;108930;-59
2023/10/03 11:36:47;;;;;;;11.98;10.77;;;;;;;24.41;37.99;95864.84;6007069;28;108911;-60
2023/10/03 11:39:50;;;;;;;11.15;10.15;;;;;;;24.39;37.51;95861.69;6018101;29;108838;-62
2023/10/03 11:42:55;;;;;;;11.30;10.20;;;;;;;24.36;38.04;95856.13;6018144;29;108956;-59
2023/10/03 11:46:01;;;;;;;10.88;9.85;;;;;;;24.34;38.00;95859.09;6012210;29;109485;-59
2023/10/03 11:49:04;;;;;;;10.57;9.57;;;;;;;24.32;37.70;95845.22;6013550;28;109192;-60
2023/10/03 11:52:08;;;;;;;11.18;10.18;;;;;;;24.29;37.73;95848.50;6017828;28;108872;-59
2023/10/03 11:55:12;;;;;;;10.48;9.57;;;;;;;24.30;37.72;95843.94;6016836;28;108913;-60
2023/10/03 11:58:15;;;;;;;10.57;9.57;;;;;;;24.29;37.69;95840.47;6006851;28;109433;-59
2023/10/03 12:01:21;;;;;;;9.60;8.70;;;;;;;24.29;37.67;95842.38;6017576;28;109007;-60
2023/10/03 12:04:27;;;;;;;10.38;9.27;;;;;;;24.25;37.83;95836.84;6016987;28;122996;-59
2023/10/03 12:07:30;;;;;;;10.73;9.73;;;;;;;24.23;37.60;95831.00;6017655;28;109295;-59
2023/10/03 12:10:36;;;;;;;9.70;8.80;;;;;;;24.23;37.83;95827.53;6006854;28;108922;-59
2023/10/03 12:13:41;;;;;;;9.90;9.00;;;;;;;24.21;37.52;95827.84;6017395;28;108904;-56
2023/10/03 12:16:51;;;;;;;9.60;8.70;;;;;;;24.22;37.60;95821.38;6018018;28;108888;-60
2023/10/03 12:19:55;;;;;;;9.43;8.60;;;;;;;24.22;37.65;95823.28;6012413;28;109194;-59
2023/10/03 12:22:58;;;;;;;10.05;9.05;;;;;;;24.18;37.45;95812.34;6011828;28;108970;-59
2023/10/03 12:26:01;;;;;;;10.80;9.70;;;;;;;24.16;37.43;95804.63;6016711;29;108859;-60
2023/10/03 12:29:31;;;;;;;10.52;9.52;;;;;;;24.17;37.62;95803.53;6017431;28;108784;-60
2023/10/03 12:32:38;;;;;;;10.40;9.40;;;;;;;24.15;37.48;95805.72;6006365;28;108923;-60
2023/10/03 12:35:41;;;;;;;10.07;9.18;;;;;;;24.15;37.40;95803.06;6016467;28;109138;-60
2023/10/03 12:38:45;;;;;;;11.13;10.03;;;;;;;24.13;37.60;95802.56;6017175;28;108919;-59
2023/10/03 12:41:48;;;;;;;12.30;11.00;;;;;;;24.13;37.71;95804.44;6017316;28;109283;-59
2023/10/03 12:44:52;;;;;;;12.40;11.10;;;;;;;24.13;37.74;95799.91;6006492;28;109462;-60
2023/10/03 12:47:58;;;;;;;12.52;11.38;;;;;;;24.12;37.75;95798.31;6017102;28;109101;-60
2023/10/03 12:51:02;;;;;;;12.80;11.60;;;;;;;24.10;37.72;95795.16;6016891;28;109081;-60
2023/10/03 12:54:06;;;;;;;13.02;11.82;;;;;;;24.09;37.94;95787.44;6011474;28;109004;-60
2023/10/03 12:57:10;;;;;;;13.17;11.97;;;;;;;24.04;37.81;95779.53;6010450;28;108975;-60
2023/10/03 13:00:18;;;;;;;11.90;10.80;;;;;;;24.06;37.36;95785.38;6017087;28;109372;-60
2023/10/03 13:03:23;;;;;;;12.05;10.95;;;;;;;24.07;37.47;95786.94;6016585;28;108989;-60
2023/10/03 13:06:27;;;;;;;12.60;11.40;;;;;;;24.06;37.44;95777.34;6005573;28;109243;-60
2023/10/03 13:09:30;;;;;;;12.18;11.07;;;;;;;24.07;37.27;95776.25;6016553;28;108988;-60
2023/10/03 13:12:34;;;;;;;13.30;12.10;;;;;;;24.03;37.74;95770.72;6016683;29;109145;-59
2023/10/03 13:15:37;;;;;;;13.35;12.15;;;;;;;24.02;37.83;95771.00;6016550;28;108998;-60
2023/10/03 13:18:42;;;;;;;13.87;12.57;;;;;;;24.04;37.40;95771.50;6006614;28;110633;-60
2023/10/03 13:21:47;;;;;;;14.02;12.73;;;;;;;24.03;37.82;95765.38;6016668;29;109171;-60
2023/10/03 13:24:50;;;;;;;14.90;13.50;;;;;;;24.03;37.74;95762.69;6016550;28;108901;-56
2023/10/03 13:27:54;;;;;;;15.40;14.00;;;;;;;24.00;37.80;95760.59;6010967;28;111831;-56
2023/10/03 13:30:57;;;;;;;15.60;14.20;;;;;;;23.99;38.06;95756.31;6011515;28;110467;-56
2023/10/03 13:34:02;;;;;;;16.27;14.77;;;;;;;23.97;37.85;95758.50;6015576;29;108950;-56
2023/10/03 13:37:05;;;;;;;16.00;14.50;;;;;;;23.99;37.51;95755.53;6016100;28;109216;-56
2023/10/03 13:40:11;;;;;;;16.13;14.70;;;;;;;23.98;38.02;95753.94;6006557;29;109249;-57
2023/10/03 13:43:17;;;;;;;15.77;14.37;;;;;;;23.97;37.52;95752.34;6016177;28;109212;-57
2023/10/03 13:46:22;;;;;;;16.08;14.68;;;;;;;23.97;37.77;95752.34;6019099;29;108831;-57
2023/10/03 13:49:27;;;;;;;15.95;14.55;;;;;;;23.93;37.70;95749.50;6020321;28;108921;-57
2023/10/03 13:52:31;;;;;;;15.30;13.90;;;;;;;23.96;37.54;95748.91;6009463;28;109150;-57
2023/10/03 13:55:34;;;;;;;16.20;14.70;;;;;;;23.93;38.23;95744.16;6020124;28;110100;-57
2023/10/03 13:58:38;;;;;;;15.80;14.40;;;;;;;23.93;37.63;95748.72;6019021;28;108940;-57
2023/10/03 14:01:41;;;;;;;15.53;14.13;;;;;;;23.93;38.05;95749.50;6019774;29;108924;-57
2023/10/03 14:04:46;;;;;;;16.20;14.70;;;;;;;23.70;38.06;95715.78;6010328;28;109229;-56
2023/10/03 14:07:52;;;;;;;15.65;14.30;;;;;;;23.90;38.11;95742.88;6019823;28;109040;-56
2023/10/03 14:10:55;;;;;;;14.90;13.60;;;;;;;23.90;38.19;95737.53;6020213;29;108855;-56